createdAt,value
2022-09-03T00:00:14.829Z,99.99
2022-09-03T00:01:14.819Z,99.79
2022-09-03T00:02:14.810Z,99.99
2022-09-03T00:03:14.800Z,99.99
2022-09-03T00:04:14.791Z,99.99
2022-09-03T00:05:15.813Z,99.99
2022-09-03T00:06:14.763Z,99.99
2022-09-03T00:07:14.759Z,99.99
2022-09-03T00:08:14.814Z,99.79
2022-09-03T00:09:14.742Z,99.69
2022-09-03T00:10:16.326Z,99.99
2022-09-03T00:11:14.742Z,99.99
2022-09-03T00:12:14.704Z,99.99
2022-09-03T00:13:14.702Z,99.99
2022-09-03T00:14:14.682Z,99.99
2022-09-03T00:15:14.677Z,99.90
2022-09-03T00:16:14.695Z,99.69
2022-09-03T00:17:14.691Z,99.54
2022-09-03T00:18:14.714Z,98.93
2022-09-03T00:19:14.634Z,98.72
2022-09-03T00:20:14.622Z,98.83
2022-09-03T00:21:14.611Z,98.62
2022-09-03T00:22:14.594Z,98.52
2022-09-03T00:23:14.613Z,98.52
2022-09-03T00:24:15.089Z,99.13
2022-09-03T00:25:14.594Z,98.32
2022-09-03T00:26:14.558Z,98.11
2022-09-03T00:27:14.546Z,98.27
2022-09-03T00:28:14.538Z,99.99
2022-09-03T00:29:14.578Z,99.91
2022-09-03T00:30:14.765Z,99.50
2022-09-03T00:31:14.553Z,99.60
2022-09-03T00:32:14.499Z,98.88
2022-09-03T00:33:14.491Z,98.52
2022-09-03T00:34:14.470Z,98.99
2022-09-03T00:35:14.488Z,99.34
2022-09-03T00:36:14.454Z,99.95
2022-09-03T00:37:15.768Z,99.34
2022-09-03T00:38:14.429Z,99.99
2022-09-03T00:39:14.427Z,99.85
2022-09-03T00:40:14.411Z,99.75
2022-09-03T00:41:14.429Z,99.99
2022-09-03T00:42:14.391Z,99.99
2022-09-03T00:43:14.380Z,99.99
2022-09-03T00:44:14.372Z,99.99
2022-09-03T00:45:14.360Z,99.85
2022-09-03T00:46:14.403Z,99.99
2022-09-03T00:47:14.361Z,99.99
2022-09-03T00:48:17.363Z,99.65
2022-09-03T00:49:14.312Z,99.44
2022-09-03T00:50:14.301Z,99.13
2022-09-03T00:51:14.302Z,98.83
2022-09-03T00:52:14.291Z,98.52
2022-09-03T00:53:14.323Z,98.37
2022-09-03T00:54:14.263Z,98.68
2022-09-03T00:55:14.252Z,98.37
2022-09-03T00:56:14.247Z,98.27
2022-09-03T00:57:14.232Z,98.27
2022-09-03T00:58:17.314Z,98.37
2022-09-03T00:59:14.235Z,98.58
2022-09-03T01:00:14.205Z,98.68
2022-09-03T01:01:14.287Z,98.68
2022-09-03T01:02:14.319Z,98.78
2022-09-03T01:03:14.173Z,99.50
2022-09-03T01:04:14.164Z,99.99
2022-09-03T01:05:14.184Z,99.99
2022-09-03T01:06:14.136Z,99.99
2022-09-03T01:07:14.127Z,99.40
2022-09-03T01:08:14.197Z,99.50
2022-09-03T01:09:14.116Z,99.09
2022-09-03T01:10:14.090Z,98.99
2022-09-03T01:11:14.131Z,98.78
2022-09-03T01:12:14.068Z,98.88
2022-09-03T01:13:14.066Z,98.58
2022-09-03T01:14:14.058Z,98.47
2022-09-03T01:15:14.046Z,98.27
2022-09-03T01:16:14.130Z,98.16
2022-09-03T01:17:14.053Z,98.37
2022-09-03T01:18:14.018Z,99.09
2022-09-03T01:19:14.009Z,99.99
2022-09-03T01:20:13.997Z,99.99
2022-09-03T01:21:13.991Z,99.99
2022-09-03T01:22:13.970Z,99.99
2022-09-03T01:23:14.000Z,99.99
2022-09-03T01:24:13.951Z,99.99
2022-09-03T01:25:13.940Z,99.99
2022-09-03T01:26:13.922Z,99.99
2022-09-03T01:27:13.930Z,99.99
2022-09-03T01:28:13.912Z,99.99
2022-09-03T01:29:13.929Z,99.99
2022-09-03T01:30:13.890Z,99.99
2022-09-03T01:31:13.915Z,99.99
2022-09-03T01:32:13.865Z,99.99
2022-09-03T01:33:13.863Z,99.99
2022-09-03T01:34:13.851Z,99.99
2022-09-03T01:35:13.867Z,99.99
2022-09-03T01:36:13.835Z,99.99
2022-09-03T01:37:13.813Z,99.99
2022-09-03T01:38:13.804Z,99.99
2022-09-03T01:39:13.796Z,99.99
2022-09-03T01:40:13.784Z,99.99
2022-09-03T01:41:13.803Z,99.99
2022-09-03T01:42:13.762Z,99.99
2022-09-03T01:43:13.756Z,99.99
2022-09-03T01:44:13.738Z,99.99
2022-09-03T01:45:13.737Z,99.99
2022-09-03T01:46:13.773Z,99.99
2022-09-03T01:47:13.732Z,99.99
2022-09-03T01:48:13.706Z,99.99
2022-09-03T01:49:13.687Z,99.99
2022-09-03T01:50:13.685Z,99.99
2022-09-03T01:51:13.670Z,99.99
2022-09-03T01:52:13.666Z,99.99
2022-09-03T01:53:13.668Z,99.99
2022-09-03T01:54:20.839Z,99.99
2022-09-03T01:55:14.628Z,99.99
2022-09-03T01:56:13.618Z,99.99
2022-09-03T01:57:31.249Z,99.99
2022-09-03T01:58:14.644Z,99.99
2022-09-03T01:59:13.586Z,99.99
2022-09-03T02:00:13.633Z,99.99
2022-09-03T02:01:13.627Z,99.99
2022-09-03T02:02:13.598Z,99.99
2022-09-03T02:03:13.547Z,99.99
2022-09-03T02:04:13.599Z,99.99
2022-09-03T02:05:13.520Z,99.99
2022-09-03T02:06:13.518Z,99.99
2022-09-03T02:07:13.503Z,99.99
2022-09-03T02:08:13.489Z,99.99
2022-09-03T02:09:13.481Z,99.99
2022-09-03T02:10:13.501Z,99.99
2022-09-03T02:11:13.462Z,99.99
2022-09-03T02:12:13.452Z,99.99
2022-09-03T02:13:13.433Z,99.99
2022-09-03T02:14:13.433Z,99.99
2022-09-03T02:15:13.422Z,99.99
2022-09-03T02:16:13.499Z,99.99
2022-09-03T02:17:13.396Z,99.99
2022-09-03T02:18:13.394Z,99.99
2022-09-03T02:19:13.386Z,99.99
2022-09-03T02:20:13.380Z,99.99
2022-09-03T02:21:13.354Z,99.99
2022-09-03T02:22:13.384Z,99.99
2022-09-03T02:23:13.335Z,99.99
2022-09-03T02:24:13.341Z,99.99
2022-09-03T02:25:13.319Z,99.99
2022-09-03T02:26:13.317Z,99.99
2022-09-03T02:27:13.296Z,99.99
2022-09-03T02:28:17.278Z,99.99
2022-09-03T02:29:13.269Z,99.99
2022-09-03T02:30:13.266Z,99.99
2022-09-03T02:31:13.301Z,99.99
2022-09-03T02:32:13.245Z,99.99
2022-09-03T02:33:13.228Z,99.99
2022-09-03T02:34:13.250Z,99.99
2022-09-03T02:35:13.438Z,99.99
2022-09-03T02:36:13.197Z,99.99
2022-09-03T02:37:13.186Z,99.99
2022-09-03T02:38:13.184Z,99.99
2022-09-03T02:39:13.170Z,99.99
2022-09-03T02:40:13.198Z,99.99
2022-09-03T02:41:13.150Z,99.99
2022-09-03T02:42:13.155Z,99.99
2022-09-03T02:43:13.142Z,99.99
2022-09-03T02:44:13.130Z,99.99
2022-09-03T02:45:13.121Z,99.99
2022-09-03T02:46:13.150Z,99.99
2022-09-03T02:47:13.102Z,99.99
2022-09-03T02:48:13.074Z,99.99
2022-09-03T02:49:13.069Z,99.99
2022-09-03T02:50:13.053Z,99.99
2022-09-03T02:51:14.162Z,99.99
2022-09-03T02:52:13.070Z,99.99
2022-09-03T02:53:13.032Z,99.99
2022-09-03T02:54:13.768Z,99.99
2022-09-03T02:55:13.003Z,99.99
2022-09-03T02:56:12.995Z,99.99
2022-09-03T02:57:12.982Z,99.99
2022-09-03T02:58:12.993Z,99.99
2022-09-03T02:59:12.955Z,99.99
2022-09-03T03:00:12.952Z,99.99
2022-09-03T03:01:21.768Z,99.99
2022-09-03T03:02:13.982Z,99.99
2022-09-03T03:03:12.924Z,99.99
2022-09-03T03:04:12.936Z,99.99
2022-09-03T03:05:12.896Z,99.99
2022-09-03T03:06:12.885Z,99.99
2022-09-03T03:07:12.878Z,99.99
2022-09-03T03:08:12.866Z,99.99
2022-09-03T03:09:12.848Z,99.99
2022-09-03T03:10:12.886Z,99.99
2022-09-03T03:11:12.837Z,99.99
2022-09-03T03:12:12.828Z,99.99
2022-09-03T03:13:12.815Z,99.99
2022-09-03T03:14:12.808Z,99.99
2022-09-03T03:15:12.795Z,99.99
2022-09-03T03:16:12.881Z,99.99
2022-09-03T03:17:12.775Z,99.99
2022-09-03T03:18:12.769Z,99.99
2022-09-03T03:19:12.750Z,99.99
2022-09-03T03:20:12.749Z,99.99
2022-09-03T03:21:12.730Z,99.99
2022-09-03T03:22:12.746Z,99.99
2022-09-03T03:23:12.723Z,99.99
2022-09-03T03:24:12.701Z,99.99
2022-09-03T03:25:12.691Z,99.99
2022-09-03T03:26:12.686Z,99.99
2022-09-03T03:27:12.663Z,99.99
2022-09-03T03:28:12.691Z,99.99
2022-09-03T03:29:12.649Z,99.99
2022-09-03T03:30:12.642Z,99.99
2022-09-03T03:31:12.658Z,99.99
2022-09-03T03:32:12.621Z,99.99
2022-09-03T03:33:12.605Z,99.99
2022-09-03T03:34:12.630Z,99.99
2022-09-03T03:35:12.590Z,99.99
2022-09-03T03:36:12.573Z,99.99
2022-09-03T03:37:12.563Z,99.99
2022-09-03T03:38:12.559Z,99.99
2022-09-03T03:39:12.553Z,99.99
2022-09-03T03:40:12.565Z,99.99
2022-09-03T03:41:12.525Z,99.99
2022-09-03T03:42:12.515Z,99.99
2022-09-03T03:43:12.506Z,99.99
2022-09-03T03:44:12.506Z,99.99
2022-09-03T03:45:12.483Z,99.99
2022-09-03T03:46:12.564Z,99.99
2022-09-03T03:47:12.458Z,99.99
2022-09-03T03:48:12.457Z,99.99
2022-09-03T03:49:12.436Z,99.99
2022-09-03T03:50:12.437Z,99.99
2022-09-03T03:51:12.417Z,99.99
2022-09-03T03:52:12.397Z,99.99
2022-09-03T03:53:12.347Z,99.99
2022-09-03T03:54:12.906Z,99.99
2022-09-03T03:55:13.339Z,99.99
2022-09-03T03:56:12.318Z,99.99
2022-09-03T03:57:12.299Z,99.99
2022-09-03T03:58:12.319Z,99.99
2022-09-03T03:59:12.289Z,99.99
2022-09-03T04:00:12.270Z,99.99
2022-09-03T04:01:12.314Z,99.99
2022-09-03T04:02:12.290Z,99.99
2022-09-03T04:03:12.240Z,99.99
2022-09-03T04:04:12.301Z,99.99
2022-09-03T04:05:12.220Z,99.99
2022-09-03T04:06:12.211Z,99.99
2022-09-03T04:07:12.200Z,99.99
2022-09-03T04:08:12.198Z,99.99
2022-09-03T04:09:12.182Z,99.99
2022-09-03T04:10:12.193Z,99.99
2022-09-03T04:11:12.161Z,99.99
2022-09-03T04:12:12.143Z,99.99
2022-09-03T04:13:12.142Z,99.99
2022-09-03T04:14:12.137Z,99.99
2022-09-03T04:15:12.114Z,99.99
2022-09-03T04:16:12.169Z,99.99
2022-09-03T04:17:12.094Z,99.99
2022-09-03T04:18:12.084Z,99.99
2022-09-03T04:19:12.077Z,99.99
2022-09-03T04:20:12.074Z,99.99
2022-09-03T04:21:12.057Z,99.99
2022-09-03T04:22:12.065Z,99.99
2022-09-03T04:23:12.036Z,99.99
2022-09-03T04:24:12.033Z,99.99
2022-09-03T04:25:12.019Z,99.99
2022-09-03T04:26:12.013Z,99.99
2022-09-03T04:27:11.994Z,99.99
2022-09-03T04:28:12.017Z,99.99
2022-09-03T04:29:11.976Z,99.99
2022-09-03T04:30:11.967Z,99.99
2022-09-03T04:31:11.983Z,99.99
2022-09-03T04:32:11.946Z,99.99
2022-09-03T04:33:16.295Z,99.99
2022-09-03T04:34:11.955Z,99.99
2022-09-03T04:35:11.907Z,99.99
2022-09-03T04:36:11.909Z,99.99
2022-09-03T04:37:11.889Z,99.99
2022-09-03T04:38:11.888Z,99.99
2022-09-03T04:39:11.875Z,99.99
2022-09-03T04:40:11.896Z,99.99
2022-09-03T04:41:11.859Z,99.99
2022-09-03T04:42:11.848Z,99.99
2022-09-03T04:43:11.820Z,99.99
2022-09-03T04:44:11.820Z,99.99
2022-09-03T04:45:11.811Z,99.99
2022-09-03T04:46:17.781Z,99.99
2022-09-03T04:47:12.792Z,99.99
2022-09-03T04:48:11.778Z,99.99
2022-09-03T04:49:11.770Z,99.99
2022-09-03T04:50:11.760Z,99.99
2022-09-03T04:51:11.741Z,99.99
2022-09-03T04:52:11.771Z,99.99
2022-09-03T04:53:11.731Z,99.99
2022-09-03T04:54:11.724Z,99.99
2022-09-03T04:55:11.704Z,99.99
2022-09-03T04:56:11.701Z,99.99
2022-09-03T04:57:11.684Z,99.99
2022-09-03T04:58:11.712Z,99.99
2022-09-03T04:59:11.663Z,99.99
2022-09-03T05:00:11.654Z,99.99
2022-09-03T05:01:11.694Z,99.99
2022-09-03T05:02:11.654Z,99.99
2022-09-03T05:03:11.624Z,99.99
2022-09-03T05:04:11.642Z,99.99
2022-09-03T05:05:11.597Z,99.99
2022-09-03T05:06:11.614Z,99.99
2022-09-03T05:07:11.578Z,99.99
2022-09-03T05:08:11.574Z,99.99
2022-09-03T05:09:11.557Z,99.99
2022-09-03T05:10:11.575Z,99.99
2022-09-03T05:11:11.536Z,99.99
2022-09-03T05:12:11.528Z,99.99
2022-09-03T05:13:11.518Z,99.99
2022-09-03T05:14:11.522Z,99.99
2022-09-03T05:15:11.497Z,99.99
2022-09-03T05:16:11.572Z,99.99
2022-09-03T05:17:11.489Z,99.99
2022-09-03T05:18:11.520Z,99.99
2022-09-03T05:19:11.458Z,99.99
2022-09-03T05:20:11.447Z,99.99
2022-09-03T05:21:11.431Z,99.99
2022-09-03T05:22:11.451Z,99.99
2022-09-03T05:23:11.418Z,99.99
2022-09-03T05:24:11.409Z,99.99
2022-09-03T05:25:11.391Z,99.99
2022-09-03T05:26:11.389Z,99.99
2022-09-03T05:27:11.378Z,99.99
2022-09-03T05:28:11.391Z,99.99
2022-09-03T05:29:11.350Z,99.99
2022-09-03T05:30:11.339Z,99.99
2022-09-03T05:31:11.366Z,99.99
2022-09-03T05:32:11.321Z,99.99
2022-09-03T05:33:11.302Z,99.99
2022-09-03T05:34:18.179Z,99.99
2022-09-03T05:35:12.284Z,99.99
2022-09-03T05:36:11.283Z,99.99
2022-09-03T05:37:11.264Z,99.99
2022-09-03T05:38:11.262Z,99.99
2022-09-03T05:39:11.246Z,99.99
2022-09-03T05:40:11.284Z,99.99
2022-09-03T05:41:11.233Z,99.99
2022-09-03T05:42:11.215Z,99.99
2022-09-03T05:43:11.205Z,99.99
2022-09-03T05:44:11.195Z,99.99
2022-09-03T05:45:11.187Z,99.99
2022-09-03T05:46:11.337Z,99.99
2022-09-03T05:47:11.166Z,99.99
2022-09-03T05:48:11.156Z,99.99
2022-09-03T05:49:11.137Z,99.99
2022-09-03T05:50:11.135Z,99.99
2022-09-03T05:51:11.119Z,99.99
2022-09-03T05:52:11.148Z,99.99
2022-09-03T05:53:11.098Z,99.99
2022-09-03T05:54:11.096Z,99.99
2022-09-03T05:55:13.457Z,99.99
2022-09-03T05:56:11.078Z,99.99
2022-09-03T05:57:11.060Z,99.99
2022-09-03T05:58:11.086Z,99.99
2022-09-03T05:59:11.032Z,99.99
2022-09-03T06:00:11.029Z,99.99
2022-09-03T06:01:11.018Z,99.99
2022-09-03T06:02:11.158Z,99.99
2022-09-03T06:03:11.109Z,99.99
2022-09-03T06:04:11.009Z,99.99
2022-09-03T06:05:10.981Z,99.99
2022-09-03T06:06:10.971Z,99.99
2022-09-03T06:07:10.960Z,99.99
2022-09-03T06:08:10.944Z,99.99
2022-09-03T06:09:10.941Z,99.99
2022-09-03T06:10:10.959Z,99.99
2022-09-03T06:11:10.919Z,99.99
2022-09-03T06:12:10.902Z,99.99
2022-09-03T06:13:10.895Z,99.99
2022-09-03T06:14:10.877Z,99.99
2022-09-03T06:15:10.871Z,99.99
2022-09-03T06:16:10.947Z,99.99
2022-09-03T06:17:10.856Z,99.99
2022-09-03T06:18:10.835Z,99.99
2022-09-03T06:19:10.826Z,99.99
2022-09-03T06:20:10.823Z,99.99
2022-09-03T06:21:10.813Z,99.99
2022-09-03T06:22:10.824Z,99.99
2022-09-03T06:23:10.798Z,99.91
2022-09-03T06:24:10.775Z,99.51
2022-09-03T06:25:10.768Z,99.46
2022-09-03T06:26:10.773Z,99.77
2022-09-03T06:27:10.746Z,99.05
2022-09-03T06:28:10.756Z,99.46
2022-09-03T06:29:10.752Z,98.65
2022-09-03T06:30:10.709Z,98.24
2022-09-03T06:31:10.745Z,98.95
2022-09-03T06:32:10.699Z,99.15
2022-09-03T06:33:10.690Z,98.95
2022-09-03T06:34:10.686Z,98.44
2022-09-03T06:35:10.658Z,97.92
2022-09-03T06:36:10.648Z,98.70
2022-09-03T06:37:10.647Z,97.98
2022-09-03T06:38:10.627Z,98.19
2022-09-03T06:39:10.627Z,97.98
2022-09-03T06:40:10.630Z,98.19
2022-09-03T06:41:10.600Z,97.88
2022-09-03T06:42:10.590Z,97.67
2022-09-03T06:43:10.581Z,98.39
2022-09-03T06:44:10.569Z,98.19
2022-09-03T06:45:10.726Z,97.78
2022-09-03T06:46:10.620Z,98.60
2022-09-03T06:47:10.544Z,97.98
2022-09-03T06:48:10.534Z,98.19
2022-09-03T06:49:10.520Z,98.08
2022-09-03T06:50:10.505Z,97.67
2022-09-03T06:51:10.500Z,97.78
2022-09-03T06:52:10.522Z,98.19
2022-09-03T06:53:10.483Z,97.57
2022-09-03T06:54:10.474Z,98.08
2022-09-03T06:55:10.463Z,97.67
2022-09-03T06:56:10.441Z,97.98
2022-09-03T06:57:10.438Z,97.16
2022-09-03T06:58:10.453Z,97.67
2022-09-03T06:59:10.416Z,97.37
2022-09-03T07:00:10.405Z,97.27
2022-09-03T07:01:10.472Z,96.86
2022-09-03T07:02:10.481Z,97.22
2022-09-03T07:03:10.376Z,96.81
2022-09-03T07:04:10.385Z,96.71
2022-09-03T07:05:10.357Z,96.30
2022-09-03T07:06:10.337Z,96.41
2022-09-03T07:07:10.327Z,96.81
2022-09-03T07:08:10.316Z,96.41
2022-09-03T07:09:10.307Z,97.38
2022-09-03T07:10:10.318Z,97.17
2022-09-03T07:11:10.289Z,97.79
2022-09-03T07:12:10.277Z,97.94
2022-09-03T07:13:10.268Z,97.22
2022-09-03T07:14:10.259Z,96.41
2022-09-03T07:15:10.249Z,98.04
2022-09-03T07:16:10.283Z,98.14
2022-09-03T07:17:10.230Z,98.24
2022-09-03T07:18:10.233Z,99.16
2022-09-03T07:19:10.229Z,98.96
2022-09-03T07:20:10.195Z,97.12
2022-09-03T07:21:10.201Z,96.61
2022-09-03T07:22:10.206Z,96.92
2022-09-03T07:23:10.161Z,98.14
2022-09-03T07:24:10.153Z,98.14
2022-09-03T07:25:10.149Z,97.49
2022-09-03T07:26:10.134Z,97.17
2022-09-03T07:27:14.407Z,97.08
2022-09-03T07:28:11.134Z,97.58
2022-09-03T07:29:10.104Z,97.58
2022-09-03T07:30:10.092Z,97.38
2022-09-03T07:31:10.084Z,96.97
2022-09-03T07:32:10.090Z,98.40
2022-09-03T07:33:10.063Z,97.69
2022-09-03T07:34:10.496Z,98.40
2022-09-03T07:35:10.044Z,99.52
2022-09-03T07:36:10.029Z,99.99
2022-09-03T07:37:10.024Z,99.52
2022-09-03T07:38:10.015Z,98.81
2022-09-03T07:39:10.007Z,99.22
2022-09-03T07:40:10.016Z,99.43
2022-09-03T07:41:09.978Z,98.91
2022-09-03T07:42:09.969Z,97.99
2022-09-03T07:43:09.966Z,98.86
2022-09-03T07:44:09.947Z,98.56
2022-09-03T07:45:09.949Z,97.64
2022-09-03T07:46:10.044Z,98.56
2022-09-03T07:47:09.919Z,98.15
2022-09-03T07:48:09.907Z,97.44
2022-09-03T07:49:09.900Z,97.95
2022-09-03T07:50:09.886Z,97.85
2022-09-03T07:51:09.881Z,95.50
2022-09-03T07:52:12.002Z,93.05
2022-09-03T07:53:09.872Z,94.58
2022-09-03T07:54:09.852Z,95.76
2022-09-03T07:55:09.841Z,96.47
2022-09-03T07:56:09.822Z,96.92
2022-09-03T07:57:09.822Z,94.17
2022-09-03T07:58:09.832Z,95.19
2022-09-03T07:59:09.801Z,95.90
2022-09-03T08:00:09.790Z,95.60
2022-09-03T08:01:11.366Z,95.60
2022-09-03T08:02:10.167Z,96.01
2022-09-03T08:03:09.765Z,95.09
2022-09-03T08:04:10.135Z,94.68
2022-09-03T08:05:09.743Z,95.09
2022-09-03T08:06:09.725Z,95.19
2022-09-03T08:07:09.715Z,96.21
2022-09-03T08:08:09.707Z,95.80
2022-09-03T08:09:10.726Z,91.92
2022-09-03T08:10:09.687Z,93.25
2022-09-03T08:11:09.684Z,93.35
2022-09-03T08:12:09.678Z,94.89
2022-09-03T08:13:09.664Z,94.89
2022-09-03T08:14:09.646Z,95.70
2022-09-03T08:15:09.664Z,94.89
2022-09-03T08:16:09.697Z,94.78
2022-09-03T08:17:09.624Z,94.37
2022-09-03T08:18:09.607Z,93.96
2022-09-03T08:19:09.599Z,90.80
2022-09-03T08:20:09.590Z,94.17
2022-09-03T08:21:09.618Z,94.68
2022-09-03T08:22:09.559Z,95.19
2022-09-03T08:23:09.558Z,95.35
2022-09-03T08:24:09.550Z,95.45
2022-09-03T08:25:13.747Z,92.90
2022-09-03T08:26:09.527Z,93.92
2022-09-03T08:27:09.549Z,95.25
2022-09-03T08:28:09.501Z,94.33
2022-09-03T08:29:09.513Z,93.92
2022-09-03T08:30:09.490Z,93.82
2022-09-03T08:31:09.495Z,94.94
2022-09-03T08:32:09.462Z,94.94
2022-09-03T08:33:09.482Z,95.65
2022-09-03T08:34:09.443Z,95.76
2022-09-03T08:35:09.433Z,94.53
2022-09-03T08:36:09.422Z,95.04
2022-09-03T08:37:09.423Z,95.45
2022-09-03T08:38:10.863Z,93.71
2022-09-03T08:39:09.548Z,93.16
2022-09-03T08:40:09.381Z,93.98
2022-09-03T08:41:09.375Z,93.16
2022-09-03T08:42:09.362Z,89.59
2022-09-03T08:43:09.361Z,90.71
2022-09-03T08:44:09.346Z,92.96
2022-09-03T08:45:09.356Z,93.22
2022-09-03T08:46:09.368Z,90.36
2022-09-03T08:47:09.318Z,92.81
2022-09-03T08:48:09.298Z,92.00
2022-09-03T08:49:09.295Z,91.49
2022-09-03T08:50:09.286Z,93.32
2022-09-03T08:51:09.298Z,92.91
2022-09-03T08:52:09.264Z,91.83
2022-09-03T08:53:09.259Z,91.33
2022-09-03T08:54:09.251Z,90.20
2022-09-03T08:55:09.237Z,89.39
2022-09-03T08:56:09.219Z,90.45
2022-09-03T08:57:09.239Z,92.14
2022-09-03T08:58:09.199Z,92.45
2022-09-03T08:59:09.189Z,92.45
2022-09-03T09:00:09.180Z,93.52
2022-09-03T09:01:09.178Z,93.12
2022-09-03T09:02:09.282Z,94.45
2022-09-03T09:03:09.180Z,92.50
2022-09-03T09:04:09.140Z,94.75
2022-09-03T09:05:12.267Z,92.71
2022-09-03T09:06:10.120Z,91.89
2022-09-03T09:07:09.111Z,93.22
2022-09-03T09:08:09.100Z,93.77
2022-09-03T09:09:09.112Z,94.70
2022-09-03T09:10:09.071Z,92.04
2022-09-03T09:11:09.073Z,93.31
2022-09-03T09:12:09.053Z,93.82
2022-09-03T09:13:09.054Z,94.02
2022-09-03T09:14:09.036Z,94.02
2022-09-03T09:15:09.056Z,94.53
2022-09-03T09:16:09.058Z,94.74
2022-09-03T09:17:09.013Z,95.35
2022-09-03T09:18:08.997Z,94.53
2022-09-03T09:19:08.997Z,94.33
2022-09-03T09:20:08.976Z,93.92
2022-09-03T09:21:08.994Z,93.62
2022-09-03T09:22:08.959Z,94.23
2022-09-03T09:23:09.235Z,93.71
2022-09-03T09:24:08.935Z,94.29
2022-09-03T09:25:08.928Z,94.59
2022-09-03T09:26:08.915Z,95.00
2022-09-03T09:27:14.040Z,95.31
2022-09-03T09:28:09.896Z,93.77
2022-09-03T09:29:08.887Z,93.57
2022-09-03T09:30:08.869Z,93.57
2022-09-03T09:31:08.904Z,93.88
2022-09-03T09:32:08.850Z,93.77
2022-09-03T09:33:08.876Z,93.57
2022-09-03T09:34:08.831Z,93.77
2022-09-03T09:35:08.827Z,93.47
2022-09-03T09:36:08.809Z,94.49
2022-09-03T09:37:08.801Z,94.38
2022-09-03T09:38:08.792Z,94.49
2022-09-03T09:39:08.809Z,94.18
2022-09-03T09:40:08.770Z,93.92
2022-09-03T09:41:08.761Z,94.53
2022-09-03T09:42:08.750Z,93.92
2022-09-03T09:43:08.738Z,93.82
2022-09-03T09:44:08.723Z,94.33
2022-09-03T09:45:08.745Z,94.43
2022-09-03T09:46:08.744Z,94.74
2022-09-03T09:47:08.703Z,95.15
2022-09-03T09:48:08.684Z,95.92
2022-09-03T09:49:08.681Z,95.35
2022-09-03T09:50:08.665Z,96.17
2022-09-03T09:51:09.687Z,95.65
2022-09-03T09:52:08.647Z,95.25
2022-09-03T09:53:08.637Z,95.56
2022-09-03T09:54:08.624Z,95.76
2022-09-03T09:55:08.615Z,96.58
2022-09-03T09:56:08.606Z,95.76
2022-09-03T09:57:08.635Z,95.90
2022-09-03T09:58:13.467Z,96.21
2022-09-03T09:59:09.575Z,95.90
2022-09-03T10:00:08.566Z,95.70
2022-09-03T10:01:08.629Z,96.11
2022-09-03T10:02:08.537Z,95.90
2022-09-03T10:03:08.590Z,95.80
2022-09-03T10:04:08.526Z,95.70
2022-09-03T10:05:08.521Z,96.51
2022-09-03T10:06:08.506Z,96.72
2022-09-03T10:07:08.498Z,96.92
2022-09-03T10:08:08.487Z,96.92
2022-09-03T10:09:08.500Z,97.85
2022-09-03T10:10:08.467Z,97.28
2022-09-03T10:11:08.451Z,97.33
2022-09-03T10:12:08.448Z,97.54
2022-09-03T10:13:08.442Z,97.03
2022-09-03T10:14:08.423Z,97.54
2022-09-03T10:15:08.440Z,97.03
2022-09-03T10:16:08.448Z,97.13
2022-09-03T10:17:08.398Z,97.17
2022-09-03T10:18:08.381Z,97.17
2022-09-03T10:19:08.612Z,97.49
2022-09-03T10:20:08.363Z,97.69
2022-09-03T10:21:08.380Z,98.91
2022-09-03T10:22:08.344Z,98.50
2022-09-03T10:23:08.332Z,98.65
2022-09-03T10:24:08.325Z,98.96
2022-09-03T10:25:08.315Z,99.52
2022-09-03T10:26:08.305Z,99.22
2022-09-03T10:27:08.314Z,99.52
2022-09-03T10:28:08.284Z,99.02
2022-09-03T10:29:08.265Z,98.20
2022-09-03T10:30:08.262Z,97.89
2022-09-03T10:31:08.329Z,97.38
2022-09-03T10:32:08.244Z,97.13
2022-09-03T10:33:08.264Z,97.74
2022-09-03T10:34:08.226Z,97.74
2022-09-03T10:35:08.209Z,97.74
2022-09-03T10:36:08.207Z,97.58
2022-09-03T10:37:08.197Z,98.10
2022-09-03T10:38:08.184Z,97.89
2022-09-03T10:39:08.201Z,97.99
2022-09-03T10:40:08.299Z,97.89
2022-09-03T10:41:08.149Z,98.81
2022-09-03T10:42:08.149Z,98.50
2022-09-03T10:43:08.128Z,98.50
2022-09-03T10:44:08.125Z,98.20
2022-09-03T10:45:08.138Z,98.05
2022-09-03T10:46:08.125Z,97.74
2022-09-03T10:47:08.092Z,98.86
2022-09-03T10:48:08.080Z,99.32
2022-09-03T10:49:08.070Z,98.81
2022-09-03T10:50:08.060Z,98.20
2022-09-03T10:51:08.080Z,98.50
2022-09-03T10:52:08.039Z,98.81
2022-09-03T10:53:08.033Z,99.63
2022-09-03T10:54:08.033Z,99.43
2022-09-03T10:55:08.002Z,98.81
2022-09-03T10:56:08.002Z,98.81
2022-09-03T10:57:08.013Z,98.50
2022-09-03T10:58:07.981Z,97.89
2022-09-03T10:59:07.974Z,97.38
2022-09-03T11:00:07.961Z,97.28
2022-09-03T11:01:07.998Z,97.03
2022-09-03T11:02:07.942Z,98.15
2022-09-03T11:03:08.065Z,97.79
2022-09-03T11:04:07.923Z,98.10
2022-09-03T11:05:07.906Z,97.85
2022-09-03T11:06:07.904Z,97.54
2022-09-03T11:07:07.885Z,97.44
2022-09-03T11:08:07.885Z,97.24
2022-09-03T11:09:07.894Z,97.33
2022-09-03T11:10:07.873Z,97.24
2022-09-03T11:11:07.847Z,97.29
2022-09-03T11:12:07.849Z,96.88
2022-09-03T11:13:07.831Z,96.78
2022-09-03T11:14:07.817Z,95.92
2022-09-03T11:15:07.835Z,95.81
2022-09-03T11:16:07.858Z,95.31
2022-09-03T11:17:07.788Z,96.33
2022-09-03T11:18:07.778Z,95.06
2022-09-03T11:19:07.771Z,94.75
2022-09-03T11:20:07.760Z,95.77
2022-09-03T11:21:11.987Z,94.75
2022-09-03T11:22:07.742Z,94.75
2022-09-03T11:23:07.727Z,96.28
2022-09-03T11:24:07.717Z,96.69
2022-09-03T11:25:07.708Z,96.48
2022-09-03T11:26:07.702Z,97.00
2022-09-03T11:27:07.712Z,96.18
2022-09-03T11:28:07.682Z,96.79
2022-09-03T11:29:07.662Z,97.71
2022-09-03T11:30:07.666Z,97.00
2022-09-03T11:31:07.696Z,97.71
2022-09-03T11:32:07.643Z,97.96
2022-09-03T11:33:07.671Z,98.16
2022-09-03T11:34:08.317Z,98.77
2022-09-03T11:35:07.604Z,98.47
2022-09-03T11:36:07.604Z,98.88
2022-09-03T11:37:07.587Z,98.77
2022-09-03T11:38:07.574Z,97.55
2022-09-03T11:39:07.586Z,96.94
2022-09-03T11:40:07.636Z,97.04
2022-09-03T11:41:07.545Z,97.14
2022-09-03T11:42:07.535Z,97.65
2022-09-03T11:43:07.529Z,97.55
2022-09-03T11:44:07.516Z,98.57
2022-09-03T11:45:07.527Z,97.14
2022-09-03T11:46:07.541Z,97.34
2022-09-03T11:47:07.486Z,96.73
2022-09-03T11:48:07.486Z,96.78
2022-09-03T11:49:07.465Z,97.39
2022-09-03T11:50:07.457Z,98.00
2022-09-03T11:51:07.488Z,97.80
2022-09-03T11:52:07.437Z,97.70
2022-09-03T11:53:07.433Z,97.55
2022-09-03T11:54:07.418Z,98.36
2022-09-03T11:55:07.407Z,97.86
2022-09-03T11:56:07.400Z,98.36
2022-09-03T11:57:07.416Z,97.29
2022-09-03T11:58:07.378Z,96.88
2022-09-03T11:59:07.360Z,98.00
2022-09-03T12:00:07.358Z,98.15
2022-09-03T12:01:07.342Z,98.36
2022-09-03T12:02:07.385Z,97.70
2022-09-03T12:03:07.351Z,98.31
2022-09-03T12:04:07.320Z,97.90
2022-09-03T12:05:07.304Z,97.49
2022-09-03T12:06:07.294Z,97.90
2022-09-03T12:07:07.282Z,98.31
2022-09-03T12:08:09.100Z,97.80
2022-09-03T12:09:07.293Z,97.80
2022-09-03T12:10:07.261Z,98.21
2022-09-03T12:11:07.243Z,98.72
2022-09-03T12:12:07.242Z,98.41
2022-09-03T12:13:07.225Z,97.90
2022-09-03T12:14:11.625Z,98.11
2022-09-03T12:15:08.234Z,97.75
2022-09-03T12:16:07.242Z,97.45
2022-09-03T12:17:07.188Z,97.34
2022-09-03T12:18:07.176Z,97.34
2022-09-03T12:19:07.163Z,97.65
2022-09-03T12:20:08.156Z,96.63
2022-09-03T12:21:07.166Z,96.84
2022-09-03T12:22:07.166Z,97.24
2022-09-03T12:23:07.120Z,97.34
2022-09-03T12:24:07.117Z,97.14
2022-09-03T12:25:07.098Z,97.04
2022-09-03T12:26:07.088Z,96.73
2022-09-03T12:27:07.108Z,96.53
2022-09-03T12:28:07.068Z,95.81
2022-09-03T12:29:07.060Z,96.02
2022-09-03T12:30:08.050Z,97.96
2022-09-03T12:31:07.088Z,97.34
2022-09-03T12:32:07.030Z,97.04
2022-09-03T12:33:07.047Z,96.53
2022-09-03T12:34:07.008Z,96.53
2022-09-03T12:35:06.999Z,96.43
2022-09-03T12:36:06.991Z,96.33
2022-09-03T12:37:06.979Z,97.14
2022-09-03T12:38:09.359Z,97.14
2022-09-03T12:39:12.013Z,96.48
2022-09-03T12:40:08.874Z,95.57
2022-09-03T12:41:24.104Z,96.38
2022-09-03T12:42:07.932Z,96.18
2022-09-03T12:44:07.934Z,97.30
2022-09-03T12:45:06.893Z,96.48
2022-09-03T12:46:10.710Z,96.79
2022-09-03T12:48:07.882Z,97.50
2022-09-03T12:50:07.872Z,96.63
2022-09-03T12:52:07.818Z,97.30
2022-09-03T12:53:06.816Z,97.14
2022-09-03T12:54:06.797Z,96.73
2022-09-03T12:55:06.786Z,97.34
2022-09-03T12:56:06.797Z,96.69